createdAt,value
2018-12-02T00:01:17.504Z,100286.84
2018-12-02T00:03:45.976Z,100263.38
2018-12-02T00:06:14.569Z,100270.12
2018-12-02T00:08:43.014Z,100263.65
2018-12-02T00:11:12.508Z,100260.47
2018-12-02T00:13:41.176Z,100254.95
2018-12-02T00:16:09.710Z,100256.46
2018-12-02T00:18:38.281Z,100255.62
2018-12-02T00:21:06.975Z,100248.14
2018-12-02T00:23:35.496Z,100237.22
2018-12-02T00:26:04.797Z,100240.84
2018-12-02T00:28:33.300Z,100227.29
2018-12-02T00:31:01.882Z,100215.49
2018-12-02T00:33:30.630Z,100226.63
2018-12-02T00:35:59.147Z,100220.36
2018-12-02T00:38:27.592Z,100220.17
2018-12-02T00:40:56.405Z,100221.39
2018-12-02T00:43:24.872Z,100218.61
2018-12-02T00:45:53.413Z,100216.73
2018-12-02T00:48:22.144Z,100211.84
2018-12-02T00:50:52.180Z,100208.77
2018-12-02T00:53:20.616Z,100215.02
2018-12-02T00:56:00.210Z,100220.10
2018-12-02T00:58:28.883Z,100220.55
2018-12-02T01:00:57.397Z,100212.48
2018-12-02T01:03:26.606Z,100208.28
2018-12-02T01:05:55.179Z,100193.08
2018-12-02T01:08:23.622Z,100186.22
2018-12-02T01:10:52.913Z,100186.27
2018-12-02T01:13:21.426Z,100176.65
2018-12-02T01:15:50.026Z,100178.89
2018-12-02T01:18:18.745Z,100190.98
2018-12-02T01:20:47.423Z,100177.79
2018-12-02T01:23:15.860Z,100182.61
2018-12-02T01:25:45.216Z,100172.45
2018-12-02T01:28:13.702Z,100174.81
2018-12-02T01:30:42.323Z,100162.52
2018-12-02T01:33:10.903Z,100160.16
2018-12-02T01:35:39.419Z,100158.04
2018-12-02T01:38:07.799Z,100153.02
2018-12-02T01:40:37.059Z,100148.09
2018-12-02T01:43:06.785Z,100150.88
2018-12-02T01:45:35.850Z,100156.67
2018-12-02T01:48:04.989Z,100151.02
2018-12-02T01:50:33.647Z,100154.64
2018-12-02T01:53:02.181Z,100145.58
2018-12-02T01:55:30.746Z,100149.22
2018-12-02T01:57:59.511Z,100139.77
2018-12-02T02:00:28.625Z,100136.88
2018-12-02T02:02:57.653Z,100129.52
2018-12-02T02:05:26.906Z,100130.53
2018-12-02T02:07:56.649Z,100119.45
2018-12-02T02:10:28.493Z,100123.40
2018-12-02T02:12:56.953Z,100118.45
2018-12-02T02:15:26.334Z,100119.70
2018-12-02T02:17:54.996Z,100116.45
2018-12-02T02:20:25.344Z,100117.50
2018-12-02T02:22:54.769Z,100093.42
2018-12-02T02:25:24.354Z,100104.89
2018-12-02T02:27:55.318Z,100098.67
2018-12-02T02:30:26.155Z,100087.16
2018-12-02T02:32:55.690Z,100086.72
2018-12-02T02:35:24.179Z,100080.83
2018-12-02T02:37:55.307Z,100079.19
2018-12-02T02:42:59.118Z,100071.55
2018-12-02T02:45:27.612Z,100076.39
2018-12-02T02:47:56.152Z,100071.66
2018-12-02T02:50:26.836Z,100070.93
2018-12-02T02:52:57.093Z,100068.58
2018-12-02T02:55:26.444Z,100062.84
2018-12-02T02:57:55.126Z,100061.09
2018-12-02T03:00:25.748Z,100054.89
2018-12-02T03:02:55.448Z,100046.55
2018-12-02T03:05:24.804Z,100052.67
2018-12-02T03:07:54.133Z,100045.41
2018-12-02T03:10:22.572Z,100036.86
2018-12-02T03:12:53.671Z,100033.01
2018-12-02T03:15:23.151Z,100031.82
2018-12-02T03:17:51.778Z,100024.66
2018-12-02T03:20:22.293Z,100019.48
2018-12-02T03:22:53.057Z,100014.50
2018-12-02T03:25:24.173Z,100001.25
2018-12-02T03:27:53.761Z,100004.03
2018-12-02T03:30:24.500Z,100002.66
2018-12-02T03:32:53.518Z,99994.48
2018-12-02T03:35:25.326Z,99992.38
2018-12-02T03:37:55.226Z,99980.70
2018-12-02T03:40:28.182Z,99981.49
2018-12-02T03:42:56.747Z,99983.25
2018-12-02T03:45:28.278Z,99973.07
2018-12-02T03:48:00.031Z,99981.63
2018-12-02T03:50:29.794Z,99967.34
2018-12-02T03:52:59.612Z,99963.44
2018-12-02T03:55:29.007Z,99963.30
2018-12-02T03:57:58.086Z,99957.53
2018-12-02T04:00:29.904Z,99953.59
2018-12-02T04:02:59.122Z,99834.95
2018-12-02T04:05:30.186Z,99948.83
2018-12-02T04:08:01.318Z,99935.23
2018-12-02T04:10:31.664Z,99938.98
2018-12-02T04:13:01.777Z,99936.60
2018-12-02T04:15:32.710Z,99925.00
2018-12-02T04:18:02.418Z,99926.56
2018-12-02T04:20:33.578Z,99920.83
2018-12-02T04:23:03.300Z,99917.68
2018-12-02T04:25:33.507Z,99911.67
2018-12-02T04:28:03.116Z,99725.90
2018-12-02T04:30:34.229Z,99912.38
2018-12-02T04:33:04.171Z,99906.09
2018-12-02T04:35:34.524Z,99903.40
2018-12-02T04:38:04.299Z,99902.59
2018-12-02T04:40:34.705Z,99899.39
2018-12-02T04:43:04.032Z,99896.20
2018-12-02T04:45:35.213Z,99896.19
2018-12-02T04:48:04.961Z,99885.46
2018-12-02T04:50:34.391Z,99887.45
2018-12-02T04:53:03.381Z,99888.69
2018-12-02T04:55:32.621Z,99884.42
2018-12-02T04:58:02.621Z,99880.91
2018-12-02T05:00:31.692Z,99876.16
2018-12-02T05:03:00.290Z,99876.21
2018-12-02T05:05:28.978Z,99872.97
2018-12-02T05:07:57.266Z,99860.48
2018-12-02T05:10:25.830Z,99862.37
2018-12-02T05:12:54.171Z,99851.20
2018-12-02T05:15:22.789Z,99839.01
2018-12-02T05:17:51.330Z,99833.45
2018-12-02T05:20:21.662Z,99813.77
2018-12-02T05:22:50.222Z,99811.63
2018-12-02T05:25:19.505Z,99811.18
2018-12-02T05:27:47.858Z,99818.44
2018-12-02T05:30:20.813Z,99817.91
2018-12-02T05:32:51.475Z,99818.34
2018-12-02T05:35:20.050Z,99821.66
2018-12-02T05:37:48.461Z,99812.32
2018-12-02T05:40:21.542Z,99823.52
2018-12-02T05:42:50.540Z,99819.30
2018-12-02T05:45:19.797Z,99814.51
2018-12-02T05:47:48.273Z,99801.13
2018-12-02T05:50:23.042Z,99802.45
2018-12-02T05:52:54.001Z,99797.08
2018-12-02T05:55:28.149Z,99801.07
2018-12-02T05:57:56.586Z,99802.78
2018-12-02T06:00:25.122Z,99789.36
2018-12-02T06:02:53.572Z,99790.08
2018-12-02T06:05:22.087Z,99796.89
2018-12-02T06:07:50.562Z,99787.33
2018-12-02T06:10:21.103Z,99786.59
2018-12-02T06:12:49.522Z,99783.62
2018-12-02T06:15:19.355Z,99776.36
2018-12-02T06:17:48.111Z,99782.47
2018-12-02T06:20:23.869Z,99784.62
2018-12-02T06:22:54.842Z,99785.23
2018-12-02T06:25:23.338Z,99778.09
2018-12-02T06:27:51.860Z,99776.69
2018-12-02T06:30:22.602Z,99777.95
2018-12-02T06:32:54.448Z,99770.48
2018-12-02T06:35:23.184Z,99772.72
2018-12-02T06:37:53.178Z,99769.04
2018-12-02T06:40:23.248Z,99776.05
2018-12-02T06:42:51.917Z,99760.23
2018-12-02T06:45:20.575Z,99765.48
2018-12-02T06:47:49.065Z,99773.73
2018-12-02T06:50:21.808Z,99780.73
2018-12-02T06:52:50.539Z,99774.05
2018-12-02T06:57:33.246Z,99772.66
2018-12-02T07:00:21.393Z,99776.97
2018-12-02T07:03:07.962Z,99777.96
2018-12-02T07:05:38.708Z,99779.84
2018-12-02T07:08:07.244Z,99768.80
2018-12-02T07:10:35.529Z,99772.59
2018-12-02T07:13:04.077Z,99766.55
2018-12-02T07:15:32.647Z,99770.73
2018-12-02T07:18:03.013Z,99773.60
2018-12-02T07:20:33.464Z,99781.61
2018-12-02T07:23:06.699Z,99786.52
2018-12-02T07:25:38.717Z,99788.91
2018-12-02T07:28:07.287Z,99785.91
2018-12-02T07:30:35.841Z,99786.61
2018-12-02T07:33:04.905Z,99800.67
2018-12-02T07:35:33.854Z,99793.17
2018-12-02T07:38:09.501Z,99789.11
2018-12-02T07:40:39.917Z,99794.85
2018-12-02T07:43:11.453Z,99799.62
2018-12-02T07:45:40.010Z,99796.53
2018-12-02T07:48:09.399Z,99800.69
2018-12-02T07:50:37.937Z,99801.30
2018-12-02T07:53:07.199Z,99808.72
2018-12-02T07:55:35.543Z,99805.60
2018-12-02T07:58:03.836Z,99809.33
2018-12-02T08:00:32.174Z,99804.30
2018-12-02T08:03:00.514Z,99802.86
2018-12-02T08:05:28.870Z,99808.72
2018-12-02T08:07:57.113Z,99801.78
2018-12-02T08:10:25.409Z,99801.94
2018-12-02T08:12:55.599Z,99804.44
2018-12-02T08:15:24.169Z,99801.58
2018-12-02T08:17:52.609Z,99795.14
2018-12-02T08:20:21.152Z,99807.66
2018-12-02T08:22:51.457Z,99810.66
2018-12-02T08:25:19.250Z,99807.67
2018-12-02T08:27:48.140Z,99816.99
2018-12-02T08:30:18.689Z,99814.72
2018-12-02T08:32:47.002Z,99730.66
2018-12-02T08:35:18.973Z,99813.51
2018-12-02T08:37:50.811Z,99824.02
2018-12-02T08:40:19.679Z,99823.78
2018-12-02T08:42:48.286Z,99827.11
2018-12-02T08:45:18.040Z,99829.15
2018-12-02T08:47:47.242Z,99827.71
2018-12-02T08:50:20.056Z,99837.05
2018-12-02T08:52:51.058Z,99839.30
2018-12-02T08:55:20.459Z,99846.19
2018-12-02T08:57:50.983Z,99845.84
2018-12-02T09:00:20.697Z,99846.69
2018-12-02T09:02:57.800Z,99846.22
2018-12-02T09:05:26.164Z,99847.77
2018-12-02T09:07:56.867Z,99852.41
2018-12-02T09:10:28.891Z,99851.00
2018-12-02T09:13:00.160Z,99865.09
2018-12-02T09:15:28.512Z,99866.44
2018-12-02T09:17:56.885Z,99862.48
2018-12-02T09:20:27.290Z,99853.50
2018-12-02T09:22:55.823Z,99860.68
2018-12-02T09:25:27.499Z,99871.80
2018-12-02T09:27:56.003Z,99871.80
2018-12-02T09:30:26.817Z,99868.77
2018-12-02T09:32:59.129Z,99878.36
2018-12-02T09:35:27.813Z,99878.73
2018-12-02T09:37:56.271Z,99878.48
2018-12-02T09:40:24.793Z,99888.72
2018-12-02T09:42:54.528Z,99890.44
2018-12-02T09:45:25.685Z,99896.02
2018-12-02T09:47:56.734Z,99897.09
2018-12-02T09:50:25.199Z,99901.09
2018-12-02T09:52:53.543Z,99901.36
2018-12-02T09:55:26.363Z,99902.22
2018-12-02T09:57:55.779Z,99912.16
2018-12-02T10:00:24.524Z,99914.31
2018-12-02T10:02:53.099Z,99911.92
2018-12-02T10:05:21.490Z,99919.58
2018-12-02T10:07:51.983Z,99924.95
2018-12-02T10:10:22.720Z,99926.17
2018-12-02T10:12:57.050Z,99920.27
2018-12-02T10:15:25.454Z,99926.88
2018-12-02T10:17:53.897Z,99929.38
2018-12-02T10:20:22.474Z,99931.66
2018-12-02T10:22:50.894Z,99930.46
2018-12-02T10:25:19.710Z,99935.72
2018-12-02T10:27:48.414Z,99926.27
2018-12-02T10:30:20.441Z,99937.28
2018-12-02T10:32:49.632Z,99940.37
2018-12-02T10:35:18.054Z,99936.80
2018-12-02T10:37:46.841Z,99942.66
2018-12-02T10:40:19.551Z,99933.22
2018-12-02T10:42:48.017Z,99933.31
2018-12-02T10:45:17.962Z,99942.05
2018-12-02T10:47:46.334Z,99942.05
2018-12-02T10:50:24.196Z,99963.41
2018-12-02T10:52:55.839Z,99942.30
2018-12-02T10:55:32.045Z,99952.31
2018-12-02T10:58:00.562Z,99956.59
2018-12-02T11:00:34.490Z,99964.52
2018-12-02T11:03:02.812Z,99963.33
2018-12-02T11:05:32.980Z,99965.83
2018-12-02T11:08:01.375Z,99973.72
2018-12-02T11:10:29.673Z,99966.41
2018-12-02T11:12:58.113Z,99974.29
2018-12-02T11:15:26.398Z,99971.79
2018-12-02T11:17:54.646Z,99973.96
2018-12-02T11:20:23.434Z,99975.52
2018-12-02T11:22:51.711Z,99976.10
2018-12-02T11:25:20.041Z,99974.20
2018-12-02T11:27:48.475Z,99985.55
2018-12-02T11:30:17.497Z,99983.28
2018-12-02T11:32:47.441Z,99969.89
2018-12-02T11:35:17.252Z,99976.34
2018-12-02T11:37:46.183Z,99975.88
2018-12-02T11:40:18.329Z,99977.32
2018-12-02T11:42:47.069Z,99967.75
2018-12-02T11:45:15.807Z,99986.28
2018-12-02T11:47:46.842Z,99977.78
2018-12-02T11:50:19.647Z,99986.86
2018-12-02T11:52:48.232Z,99997.13
2018-12-02T11:55:19.078Z,99993.19
2018-12-02T11:57:47.644Z,99998.36
2018-12-02T12:00:25.643Z,99993.67
2018-12-02T12:02:57.377Z,100002.16
2018-12-02T12:05:25.914Z,100008.38
2018-12-02T12:07:57.879Z,100006.36
2018-12-02T12:10:27.860Z,99996.21
2018-12-02T12:12:59.028Z,100005.05
2018-12-02T12:15:29.028Z,100003.83
2018-12-02T12:17:59.163Z,99997.98
2018-12-02T12:20:36.001Z,100003.61
2018-12-02T12:23:05.903Z,99992.48
2018-12-02T12:25:34.731Z,100002.17
2018-12-02T12:28:04.547Z,99995.73
2018-12-02T12:30:33.399Z,99995.11
2018-12-02T12:33:01.840Z,99999.30
2018-12-02T12:35:32.672Z,100002.63
2018-12-02T12:38:06.240Z,100009.78
2018-12-02T12:40:36.719Z,100007.38
2018-12-02T12:44:19.230Z,100009.07
2018-12-02T12:46:47.804Z,100009.41
2018-12-02T12:49:18.465Z,100004.52
2018-12-02T12:51:47.080Z,100011.84
2018-12-02T12:54:15.508Z,99998.60
2018-12-02T12:56:44.286Z,100006.23
2018-12-02T12:59:12.904Z,100011.25
2018-12-02T13:01:41.511Z,100019.73
2018-12-02T13:04:11.135Z,100020.91
2018-12-02T13:06:40.540Z,100021.53
2018-12-02T13:09:13.048Z,100013.14
2018-12-02T13:11:42.125Z,100017.83
2018-12-02T13:14:10.866Z,100013.97
2018-12-02T13:16:39.772Z,100015.89
2018-12-02T13:19:09.083Z,100017.66
2018-12-02T13:21:37.403Z,100021.09
2018-12-02T13:24:05.803Z,100029.20
2018-12-02T13:26:34.361Z,100028.95
2018-12-02T13:29:02.830Z,100042.11
2018-12-02T13:31:31.285Z,100040.23
2018-12-02T13:33:59.885Z,100036.91
2018-12-02T13:36:28.892Z,100040.39
2018-12-02T13:39:00.204Z,100043.05
2018-12-02T13:41:28.694Z,100046.52
2018-12-02T13:43:57.461Z,100050.70
2018-12-02T13:46:32.656Z,100055.09
2018-12-02T13:49:01.422Z,100052.63
2018-12-02T13:51:30.480Z,100066.48
2018-12-02T13:54:07.865Z,100060.73
2018-12-02T13:56:41.246Z,100061.59
2018-12-02T13:59:13.484Z,100062.20
2018-12-02T14:01:44.006Z,100062.35
2018-12-02T14:04:15.086Z,100064.22
2018-12-02T14:06:46.152Z,100063.27
2018-12-02T14:09:16.284Z,100063.64
2018-12-02T14:11:47.412Z,100060.48
2018-12-02T14:14:19.196Z,100069.22
2018-12-02T14:17:23.071Z,100061.59
2018-12-02T14:19:58.586Z,100065.78
2018-12-02T14:22:29.448Z,100063.98
2018-12-02T14:25:02.798Z,100064.95
2018-12-02T14:27:27.456Z,100072.23
2018-12-02T14:29:57.592Z,100073.19
2018-12-02T14:32:32.655Z,100071.86
2018-12-02T14:35:06.825Z,100085.44
2018-12-02T14:37:35.343Z,100082.80
2018-12-02T14:40:08.237Z,100077.94
2018-12-02T14:42:37.399Z,100083.48
2018-12-02T14:45:12.127Z,100086.11
2018-12-02T14:47:44.472Z,100080.55
2018-12-02T14:50:16.519Z,100080.06
2018-12-02T14:52:47.026Z,100083.34
2018-12-02T14:55:20.585Z,100085.36
2018-12-02T14:57:51.884Z,100091.87
2018-12-02T15:00:22.308Z,100089.77
2018-12-02T15:02:51.657Z,100086.88
2018-12-02T15:05:21.156Z,100084.00
2018-12-02T15:07:50.083Z,100094.52
2018-12-02T15:10:20.477Z,100099.59
2018-12-02T15:12:50.122Z,100098.02
2018-12-02T15:15:20.358Z,100104.89
2018-12-02T15:17:49.190Z,100103.59
2018-12-02T15:20:20.562Z,100096.38
2018-12-02T15:22:49.257Z,100090.04
2018-12-02T15:25:19.699Z,100091.37
2018-12-02T15:27:57.314Z,100094.39
2018-12-02T15:30:26.018Z,100095.78
2018-12-02T15:32:57.080Z,100093.94
2018-12-02T15:35:25.876Z,100105.61
2018-12-02T15:37:55.352Z,100090.23
2018-12-02T15:40:25.043Z,99978.09
2018-12-02T15:42:55.852Z,100083.57
2018-12-02T15:45:25.359Z,100096.23
2018-12-02T15:47:56.358Z,100097.73
2018-12-02T15:50:26.698Z,100093.94
2018-12-02T15:52:56.794Z,100100.25
2018-12-02T15:55:33.375Z,100099.74
2018-12-02T15:58:09.955Z,100098.45
2018-12-02T16:00:43.421Z,100086.56
2018-12-02T16:03:14.244Z,100093.47
2018-12-02T16:05:44.210Z,100104.90
2018-12-02T16:08:14.071Z,100095.59
2018-12-02T16:10:48.588Z,100097.73
2018-12-02T16:13:19.113Z,100092.70
2018-12-02T16:15:47.930Z,100099.97
2018-12-02T16:18:17.695Z,100094.09
2018-12-02T16:20:50.502Z,100103.95
2018-12-02T16:23:23.826Z,100102.33
2018-12-02T16:25:52.679Z,100100.09
2018-12-02T16:28:22.529Z,100099.39
2018-12-02T16:30:54.193Z,100105.20
2018-12-02T16:33:24.950Z,100112.23
2018-12-02T16:35:53.654Z,100101.81
2018-12-02T16:38:23.916Z,100104.03
2018-12-02T16:40:55.004Z,100098.02
2018-12-02T16:43:25.507Z,100103.50
2018-12-02T16:45:54.926Z,100097.53
2018-12-02T16:48:23.773Z,100095.76
2018-12-02T16:50:57.489Z,100102.35
2018-12-02T16:53:28.664Z,100096.61
2018-12-02T16:56:08.209Z,99975.64
2018-12-02T16:59:40.135Z,100092.30
2018-12-02T17:02:09.871Z,100097.90
2018-12-02T17:04:38.850Z,100092.08
2018-12-02T17:07:07.253Z,100107.13
2018-12-02T17:09:35.855Z,100113.41
2018-12-02T17:12:04.559Z,100112.11
2018-12-02T17:14:38.534Z,100116.62
2018-12-02T17:17:01.367Z,100120.94
2018-12-02T17:19:30.090Z,100115.72
2018-12-02T17:21:59.125Z,100123.81
2018-12-02T17:24:27.731Z,100119.57
2018-12-02T17:26:56.355Z,100127.05
2018-12-02T17:29:25.079Z,100119.60
2018-12-02T17:32:10.463Z,100112.11
2018-12-02T17:34:39.365Z,100119.21
2018-12-02T17:37:07.949Z,100121.61
2018-12-02T17:39:49.385Z,100120.56
2018-12-02T17:42:17.885Z,100118.39
2018-12-02T17:44:46.822Z,100114.48
2018-12-02T17:47:15.231Z,100116.02
2018-12-02T17:49:44.228Z,100116.94
2018-12-02T17:52:15.281Z,100110.46
2018-12-02T17:54:46.695Z,100118.08
2018-12-02T17:57:17.236Z,100119.08
2018-12-02T17:59:47.182Z,100121.20
2018-12-02T18:02:17.054Z,100127.24
2018-12-02T18:04:48.375Z,100121.20
2018-12-02T18:07:23.292Z,100124.53
2018-12-02T18:09:53.656Z,100123.91
2018-12-02T18:12:23.430Z,100110.83
2018-12-02T18:14:51.986Z,100116.03
2018-12-02T18:17:20.504Z,100117.58
2018-12-02T18:19:52.099Z,100124.47
2018-12-02T18:22:20.666Z,100122.09
2018-12-02T18:24:52.195Z,100123.89
2018-12-02T18:27:20.816Z,100135.23
2018-12-02T18:29:49.300Z,100131.55
2018-12-02T18:32:18.792Z,100130.62
2018-12-02T18:34:49.303Z,100133.27
2018-12-02T18:37:18.341Z,100134.97
2018-12-02T18:39:47.855Z,100132.93
2018-12-02T18:42:16.386Z,100136.94
2018-12-02T18:44:45.787Z,100136.05
2018-12-02T18:47:14.915Z,100128.17
2018-12-02T18:49:44.988Z,100122.86
2018-12-02T18:52:16.960Z,100121.57
2018-12-02T18:54:46.414Z,100120.48
2018-12-02T18:57:15.065Z,100120.57
2018-12-02T18:59:44.946Z,100122.13
2018-12-02T19:02:13.566Z,100124.52
2018-12-02T19:04:43.778Z,100120.56
2018-12-02T19:07:12.482Z,100121.36
2018-12-02T19:09:41.382Z,100118.84
2018-12-02T19:12:13.594Z,100117.75
2018-12-02T19:14:42.214Z,100118.03
2018-12-02T19:17:12.503Z,100123.53
2018-12-02T19:19:41.444Z,100126.56
2018-12-02T19:22:14.802Z,100129.10
2018-12-02T19:24:45.295Z,100128.83
2018-12-02T19:27:15.106Z,100116.62
2018-12-02T19:29:43.583Z,100125.91
2018-12-02T19:32:12.438Z,100115.95
2018-12-02T19:34:42.105Z,100117.77
2018-12-02T19:37:11.942Z,100113.95
2018-12-02T19:39:40.648Z,100113.66
2018-12-02T19:42:10.165Z,100117.25
2018-12-02T19:44:39.535Z,100109.18
2018-12-02T19:47:09.992Z,100106.06
2018-12-02T19:49:39.035Z,100111.08
2018-12-02T19:52:09.259Z,100113.59
2018-12-02T19:54:39.204Z,100112.73
2018-12-02T19:57:10.016Z,100115.95
2018-12-02T19:59:43.662Z,100112.88
2018-12-02T20:02:12.195Z,100112.73
2018-12-02T20:04:41.472Z,100106.85
2018-12-02T20:07:12.553Z,100110.91
2018-12-02T20:09:41.178Z,100109.38
2018-12-02T20:12:10.836Z,100106.42
2018-12-02T20:14:40.095Z,100105.09
2018-12-02T20:17:10.661Z,100109.73
2018-12-02T20:19:44.917Z,100104.10
2018-12-02T20:22:13.766Z,100110.23
2018-12-02T20:24:42.246Z,100104.98
2018-12-02T20:27:14.861Z,100096.97
2018-12-02T20:29:44.910Z,100099.11
2018-12-02T20:32:13.751Z,100095.30
2018-12-02T20:34:42.248Z,100090.27
2018-12-02T20:37:13.932Z,100105.09
2018-12-02T20:39:45.987Z,100102.48
2018-12-02T20:42:14.423Z,100100.92
2018-12-02T20:44:45.527Z,100103.68
2018-12-02T20:47:13.904Z,100100.80
2018-12-02T20:49:43.210Z,100094.58
2018-12-02T20:52:12.866Z,100092.41
2018-12-02T20:54:44.458Z,100090.14
2018-12-02T20:57:12.981Z,100093.34
2018-12-02T20:59:42.476Z,100091.66
2018-12-02T21:02:11.775Z,100088.25
2018-12-02T21:04:40.262Z,100081.81
2018-12-02T21:07:08.809Z,100083.35
2018-12-02T21:09:38.571Z,100080.50
2018-12-02T21:12:08.368Z,100083.42
2018-12-02T21:14:36.753Z,100087.00
2018-12-02T21:17:05.640Z,100084.99
2018-12-02T21:19:34.099Z,100086.38
2018-12-02T21:22:02.759Z,100078.42
2018-12-02T21:24:31.197Z,100086.75
2018-12-02T21:26:59.698Z,100078.05
2018-12-02T21:29:28.167Z,100079.00
2018-12-02T21:31:57.235Z,100088.63
2018-12-02T21:34:26.293Z,100082.06
2018-12-02T21:36:54.769Z,100085.08
2018-12-02T21:39:23.194Z,100079.94
2018-12-02T21:41:51.782Z,100075.80
2018-12-02T21:44:20.302Z,100076.17
2018-12-02T21:46:49.364Z,100076.48
2018-12-02T21:49:17.865Z,100081.75
2018-12-02T21:51:46.362Z,100072.80
2018-12-02T21:54:15.060Z,100078.75
2018-12-02T21:56:43.575Z,100081.48
2018-12-02T21:59:12.254Z,100085.63
2018-12-02T22:01:40.890Z,100077.87
2018-12-02T22:04:09.472Z,100071.29
2018-12-02T22:06:38.024Z,100071.91
2018-12-02T22:09:08.142Z,100073.00
2018-12-02T22:11:36.754Z,100068.96
2018-12-02T22:14:05.350Z,100069.98
2018-12-02T22:16:33.973Z,100062.86
2018-12-02T22:19:02.781Z,100058.09
2018-12-02T22:21:32.337Z,100053.08
2018-12-02T22:24:01.420Z,100059.30
2018-12-02T22:26:30.705Z,100065.29
2018-12-02T22:28:59.885Z,100070.92
2018-12-02T22:31:28.389Z,100076.30
2018-12-02T22:33:57.594Z,100075.23
2018-12-02T22:36:26.166Z,100077.86
2018-12-02T22:38:54.753Z,100080.25
2018-12-02T22:41:23.309Z,100086.06
2018-12-02T22:43:52.094Z,100081.63
2018-12-02T22:46:20.776Z,100087.27
2018-12-02T22:48:49.472Z,100083.06
2018-12-02T22:51:18.535Z,100085.08
2018-12-02T22:53:47.152Z,100074.91
2018-12-02T22:56:16.526Z,100073.97
2018-12-02T22:58:48.700Z,100074.84
2018-12-02T23:01:23.529Z,100076.80
2018-12-02T23:03:52.222Z,100082.55
2018-12-02T23:06:20.764Z,100081.91
2018-12-02T23:08:50.132Z,100081.02
2018-12-02T23:11:19.311Z,100079.03
2018-12-02T23:13:47.905Z,100078.07
2018-12-02T23:16:16.635Z,100082.86
2018-12-02T23:18:45.235Z,100072.70
2018-12-02T23:21:13.814Z,100071.90
2018-12-02T23:23:42.432Z,100071.89
2018-12-02T23:26:11.080Z,100073.59
2018-12-02T23:28:40.805Z,100076.23
2018-12-02T23:31:09.413Z,100063.77
2018-12-02T23:33:39.936Z,100067.84
2018-12-02T23:36:08.501Z,100069.80
2018-12-02T23:38:38.894Z,100074.09
2018-12-02T23:41:08.358Z,100071.95
2018-12-02T23:43:37.345Z,100076.99
2018-12-02T23:46:06.125Z,100076.75
2018-12-02T23:48:35.558Z,100070.31
2018-12-02T23:51:05.125Z,100070.08
2018-12-02T23:53:33.702Z,100069.69
2018-12-02T23:56:02.362Z,100069.56
2018-12-02T23:58:31.071Z,100075.47
